createdAt,value
2022-08-21T00:03:28.939Z,4.95
2022-08-21T00:10:12.283Z,5.40
2022-08-21T00:16:57.250Z,4.70
2022-08-21T00:23:43.331Z,4.63
2022-08-21T00:30:27.743Z,5.57
2022-08-21T00:37:10.189Z,4.43
2022-08-21T00:43:52.734Z,5.00
2022-08-21T00:50:40.825Z,4.75
2022-08-21T00:57:36.822Z,4.20
2022-08-21T01:04:24.207Z,4.55
2022-08-21T01:11:07.007Z,4.43
2022-08-21T01:17:50.493Z,4.50
2022-08-21T01:24:33.314Z,4.30
2022-08-21T01:31:18.807Z,4.32
2022-08-21T01:38:08.430Z,4.45
2022-08-21T01:44:50.839Z,4.20
2022-08-21T01:51:37.190Z,4.30
2022-08-21T01:58:20.201Z,4.43
2022-08-21T02:05:02.657Z,3.97
2022-08-21T02:11:45.049Z,4.35
2022-08-21T02:18:27.391Z,4.55
2022-08-21T02:25:10.016Z,4.35
2022-08-21T02:31:52.392Z,4.13
2022-08-21T02:38:39.086Z,4.18
2022-08-21T02:45:21.706Z,3.90
2022-08-21T02:52:06.650Z,4.30
2022-08-21T02:58:52.395Z,4.93
2022-08-21T03:05:38.484Z,4.35
2022-08-21T03:12:20.924Z,4.65
2022-08-21T03:19:04.117Z,4.70
2022-08-21T03:25:48.323Z,5.05
2022-08-21T03:32:32.350Z,4.97
2022-08-21T03:39:14.948Z,4.75
2022-08-21T03:45:57.376Z,4.80
2022-08-21T03:52:39.735Z,5.25
2022-08-21T03:59:22.178Z,4.38
2022-08-21T04:06:05.433Z,4.35
2022-08-21T04:12:48.074Z,5.25
2022-08-21T04:19:30.444Z,4.90
2022-08-21T04:26:13.363Z,5.30
2022-08-21T04:32:58.060Z,4.55
2022-08-21T04:39:40.720Z,4.53
2022-08-21T04:46:23.945Z,5.22
2022-08-21T04:53:25.342Z,4.40
2022-08-21T05:00:13.605Z,4.85
2022-08-21T05:07:01.139Z,4.40
2022-08-21T05:13:43.519Z,4.43
2022-08-21T05:20:25.904Z,4.65
2022-08-21T05:27:08.290Z,4.65
2022-08-21T05:33:50.782Z,4.50
2022-08-21T05:40:34.480Z,4.35
2022-08-21T05:47:16.879Z,4.20
2022-08-21T05:53:59.586Z,3.72
2022-08-21T06:00:43.855Z,2.90
2022-08-21T06:07:26.228Z,2.72
2022-08-21T06:14:08.652Z,2.70
2022-08-21T06:20:50.978Z,2.92
2022-08-21T06:27:33.368Z,2.78
2022-08-21T06:34:16.460Z,2.80
2022-08-21T06:40:58.878Z,3.13
2022-08-21T06:47:41.272Z,2.88
2022-08-21T06:54:23.656Z,2.95
2022-08-21T07:01:06.216Z,2.63
2022-08-21T07:07:48.726Z,2.80
2022-08-21T07:14:31.167Z,3.00
2022-08-21T07:21:13.787Z,3.10
2022-08-21T07:27:56.448Z,2.90
2022-08-21T07:34:38.806Z,2.95
2022-08-21T07:41:24.464Z,3.55
2022-08-21T07:48:06.902Z,3.55
2022-08-21T07:54:49.391Z,3.25
2022-08-21T08:01:31.944Z,3.38
2022-08-21T08:08:14.398Z,3.25
2022-08-21T08:14:58.484Z,3.70
2022-08-21T08:21:40.858Z,3.78
2022-08-21T08:28:23.460Z,4.00
2022-08-21T08:35:07.223Z,3.90
2022-08-21T08:41:52.160Z,4.35
2022-08-21T08:48:51.091Z,3.70
2022-08-21T08:55:44.976Z,3.70
2022-08-21T09:02:30.424Z,4.20
2022-08-21T09:09:23.542Z,3.80
2022-08-21T09:16:22.832Z,3.47
2022-08-21T09:23:33.738Z,3.95
2022-08-21T09:30:16.711Z,3.78
2022-08-21T09:37:00.368Z,3.85
2022-08-21T09:43:54.446Z,4.25
2022-08-21T09:50:37.490Z,3.90
2022-08-21T09:57:46.693Z,4.13
2022-08-21T10:04:37.025Z,3.75
2022-08-21T10:11:27.188Z,3.78
2022-08-21T10:18:36.578Z,3.80
2022-08-21T10:25:58.670Z,3.80
2022-08-21T10:33:17.580Z,3.78
2022-08-21T10:40:11.994Z,4.22
2022-08-21T10:47:00.524Z,3.88
2022-08-21T10:53:54.037Z,3.78
2022-08-21T11:00:44.683Z,3.88
2022-08-21T11:07:36.529Z,3.05
2022-08-21T11:14:27.061Z,3.22
2022-08-21T11:21:50.686Z,3.40
2022-08-21T11:28:47.418Z,3.75
2022-08-21T11:35:54.776Z,3.28
2022-08-21T11:43:14.822Z,3.90
2022-08-21T11:50:34.509Z,3.45
2022-08-21T11:57:23.922Z,3.25
2022-08-21T12:04:19.525Z,3.50
2022-08-21T12:11:17.229Z,3.90
2022-08-21T12:18:06.664Z,3.33
2022-08-21T12:25:04.360Z,3.55
2022-08-21T12:31:57.583Z,3.35
2022-08-21T12:38:52.661Z,3.15
2022-08-21T12:45:44.057Z,3.45
2022-08-21T12:52:38.938Z,3.40
2022-08-21T12:59:21.830Z,3.13
2022-08-21T13:06:06.146Z,3.50
2022-08-21T13:12:49.311Z,3.00
2022-08-21T13:19:33.018Z,3.60
2022-08-21T13:26:18.923Z,3.30
2022-08-21T13:33:09.739Z,3.50
2022-08-21T13:39:55.327Z,3.30
2022-08-21T13:46:38.044Z,3.53
2022-08-21T13:53:26.487Z,2.97
2022-08-21T14:00:21.086Z,3.50
2022-08-21T14:07:15.447Z,3.60
2022-08-21T14:14:00.298Z,3.15
2022-08-21T14:20:43.290Z,3.15
2022-08-21T14:27:25.713Z,2.88
2022-08-21T14:34:19.106Z,2.80
2022-08-21T14:41:09.400Z,3.08
2022-08-21T14:47:52.004Z,3.03
2022-08-21T14:54:34.782Z,3.10
2022-08-21T15:01:20.230Z,3.10
2022-08-21T15:08:03.146Z,2.72
2022-08-21T15:14:45.530Z,2.78
2022-08-21T15:21:27.878Z,2.90
2022-08-21T15:28:11.502Z,2.90
2022-08-21T15:34:55.029Z,2.90
2022-08-21T15:41:37.442Z,2.78
2022-08-21T15:48:19.840Z,3.20
2022-08-21T15:55:02.237Z,2.92
2022-08-21T16:01:45.705Z,2.88
2022-08-21T16:08:28.213Z,3.03
2022-08-21T16:15:20.131Z,3.17
2022-08-21T16:22:04.403Z,2.85
2022-08-21T16:28:51.489Z,2.70
2022-08-21T16:35:35.109Z,2.67
2022-08-21T16:42:22.892Z,3.40
2022-08-21T16:49:05.763Z,3.10
2022-08-21T16:55:48.440Z,2.92
2022-08-21T17:02:36.362Z,2.63
2022-08-21T17:09:19.310Z,3.22
2022-08-21T17:16:01.747Z,3.70
2022-08-21T17:22:44.137Z,2.60
2022-08-21T17:29:30.403Z,2.95
2022-08-21T17:36:12.882Z,3.00
2022-08-21T17:42:55.610Z,3.00
2022-08-21T17:49:38.415Z,2.85
2022-08-21T17:56:21.084Z,3.45
2022-08-21T18:03:17.522Z,3.15
2022-08-21T18:10:06.469Z,3.40
2022-08-21T18:16:49.886Z,3.78
2022-08-21T18:23:43.364Z,3.70
2022-08-21T18:30:27.189Z,3.38
2022-08-21T18:37:09.747Z,3.60
2022-08-21T18:43:54.752Z,3.40
2022-08-21T18:50:39.805Z,3.88
2022-08-21T18:57:25.221Z,3.90
2022-08-21T19:04:08.998Z,5.10
2022-08-21T19:10:56.275Z,6.50
2022-08-21T19:17:39.235Z,4.93
2022-08-21T19:24:23.253Z,6.20
2022-08-21T19:31:12.404Z,6.10
2022-08-21T19:37:58.738Z,4.57
2022-08-21T19:44:44.367Z,3.58
2022-08-21T19:51:27.347Z,4.68
2022-08-21T19:58:44.208Z,4.03
2022-08-21T20:05:39.642Z,3.45
2022-08-21T20:12:30.630Z,3.20
2022-08-21T20:19:13.420Z,3.60
2022-08-21T20:25:56.078Z,3.75
2022-08-21T20:32:38.466Z,4.00
2022-08-21T20:39:23.906Z,4.80
2022-08-21T20:46:08.022Z,4.10
2022-08-21T20:52:53.807Z,3.92
2022-08-21T20:59:36.339Z,4.40
2022-08-21T21:06:25.763Z,4.22
2022-08-21T21:13:32.631Z,4.30
2022-08-21T21:20:22.512Z,4.53
2022-08-21T21:27:18.540Z,4.82
2022-08-21T21:34:01.191Z,4.30
2022-08-21T21:41:08.164Z,4.55
2022-08-21T21:47:53.730Z,4.93
2022-08-21T21:54:54.856Z,4.57
2022-08-21T22:01:51.153Z,4.60
2022-08-21T22:15:48.378Z,5.03
2022-08-21T22:22:33.910Z,4.80
2022-08-21T22:29:21.319Z,5.18
2022-08-21T22:36:20.274Z,5.05
2022-08-21T22:43:19.138Z,5.10
2022-08-21T22:50:05.552Z,4.88
2022-08-21T22:56:58.364Z,5.15
2022-08-21T23:03:51.334Z,5.82
2022-08-21T23:10:40.729Z,5.55
2022-08-21T23:17:41.538Z,5.00
2022-08-21T23:24:32.933Z,5.32
2022-08-21T23:31:35.432Z,5.50
2022-08-21T23:38:40.202Z,5.70
2022-08-21T23:45:38.419Z,5.75
2022-08-21T23:52:55.814Z,5.03
2022-08-21T23:59:48.263Z,5.47
